メインページ
METAR-TAF:

METAR-TAF

空港 :

ムースニー, オンタリオ州, カナダ

緯度: 51-16N, 経度: 080-39W, 海抜: 10m

現時点の気象観測

当レポートは21分前の17:00(UTC)に作成
西/南西の風 9kt、南/南西から西の間で変化する
気温 16°C
湿度 68%
気圧 1012 hPa
視程: 14.5km
高度4200ftの千切れ雲あり
高度5000ftの千切れ雲あり
高度6500ftの曇り

METAR: CYMO 211700Z AUTO 24009KT 200V260 9SM BKN042 BKN050 OVC065 16/10 A2989 RMK SLP123 DENSITY ALT 200FT

時間: 13:21 (17:21 UTC)

予報

当レポートは5時間41分前の11:40(UTC)に作成
予報は21日の 12時(UTC)から 21日の 24時(UTC)まで有効
西/北西の風 5kt
視程: 10km
高度4000ftの雲は散在している
高度6000ftの千切れ雲あり
21日の 12時(UTC)から 21日の 15時(UTC)まで一時的に
視程: 8.0km
高度2000ftの千切れ雲あり
高度4000ftの千切れ雲あり
弱いにわか雨, 靄
21日の 1500時(UTC)から
北西の風 12kt
視程: 10km
高度4000ftの千切れ雲あり
21日の 18時(UTC)から 21日の 20時(UTC)まで徐々に
西の風 12kt、最大22ktの突風を伴う

TAF: CYMO 211140Z 2112/2124 30005KT P6SM SCT040 BKN060 TEMPO 2112/2115 5SM -SHRA BR BKN020 BKN040 FM211500 31012KT P6SM BKN040 BECMG 2118/2120 28012G22KT RMK FCST BASED ON AUTO OBS. NXT FCST BY 211800Z

4,000以上の空港の気象観測と天気予報(METAR報とTAF報)

利用可能な観測所は地図上に黄色い丸と赤い丸で示す。

丸の上にカーソルを重ねると観測所名を参照できる。

次にクリックすると気象観測と天気予報を参照できる。

マップの切り替え:黒色「×」印の緑ボタンをクリックして拡大、「-」印の緑ボタンをクリックして縮小、緑色の三角印をクリックして隣りの地図に切り替え


METAR-TAF: